sensor_id;sensor_type;location;lat;lon;timestamp;temperature;humidity
14283;DHT22;7225;59.282;18.344;2023-04-24T00:01:25;9.10;99.90
14283;DHT22;7225;59.282;18.344;2023-04-24T00:03:52;9.10;99.90
14283;DHT22;7225;59.282;18.344;2023-04-24T00:06:19;9.00;99.90
14283;DHT22;7225;59.282;18.344;2023-04-24T00:08:46;9.00;99.90
14283;DHT22;7225;59.282;18.344;2023-04-24T00:11:13;8.90;99.90
14283;DHT22;7225;59.282;18.344;2023-04-24T00:13:40;9.00;99.90
14283;DHT22;7225;59.282;18.344;2023-04-24T00:16:07;9.00;99.90
14283;DHT22;7225;59.282;18.344;2023-04-24T00:18:34;9.00;99.90
14283;DHT22;7225;59.282;18.344;2023-04-24T00:21:01;8.90;99.90
14283;DHT22;7225;59.282;18.344;2023-04-24T00:23:28;8.90;99.90
14283;DHT22;7225;59.282;18.344;2023-04-24T00:25:55;8.90;99.90
14283;DHT22;7225;59.282;18.344;2023-04-24T00:28:22;8.80;99.90
14283;DHT22;7225;59.282;18.344;2023-04-24T00:30:49;8.80;99.90
14283;DHT22;7225;59.282;18.344;2023-04-24T00:33:16;8.80;99.90
14283;DHT22;7225;59.282;18.344;2023-04-24T00:35:43;8.80;99.90
14283;DHT22;7225;59.282;18.344;2023-04-24T00:38:10;8.80;99.90
14283;DHT22;7225;59.282;18.344;2023-04-24T00:40:37;8.80;99.90
14283;DHT22;7225;59.282;18.344;2023-04-24T00:43:04;8.80;99.90
14283;DHT22;7225;59.282;18.344;2023-04-24T00:45:33;8.70;99.90
14283;DHT22;7225;59.282;18.344;2023-04-24T00:48:00;8.70;99.90
14283;DHT22;7225;59.282;18.344;2023-04-24T00:50:28;8.70;99.90
14283;DHT22;7225;59.282;18.344;2023-04-24T00:52:55;8.70;99.90
14283;DHT22;7225;59.282;18.344;2023-04-24T00:55:22;8.70;99.90
14283;DHT22;7225;59.282;18.344;2023-04-24T00:57:49;8.70;99.90
14283;DHT22;7225;59.282;18.344;2023-04-24T01:00:17;8.70;99.90
14283;DHT22;7225;59.282;18.344;2023-04-24T01:02:45;8.70;99.90
14283;DHT22;7225;59.282;18.344;2023-04-24T01:05:14;8.70;99.90
14283;DHT22;7225;59.282;18.344;2023-04-24T01:07:43;8.70;99.90
14283;DHT22;7225;59.282;18.344;2023-04-24T01:10:14;8.70;99.90
14283;DHT22;7225;59.282;18.344;2023-04-24T01:12:41;8.70;99.90
14283;DHT22;7225;59.282;18.344;2023-04-24T01:15:08;8.70;99.90
14283;DHT22;7225;59.282;18.344;2023-04-24T01:17:36;8.70;99.90
14283;DHT22;7225;59.282;18.344;2023-04-24T01:20:03;8.70;99.90
14283;DHT22;7225;59.282;18.344;2023-04-24T01:22:35;8.70;99.90
14283;DHT22;7225;59.282;18.344;2023-04-24T01:25:03;8.70;99.90
14283;DHT22;7225;59.282;18.344;2023-04-24T01:27:30;8.70;99.90
14283;DHT22;7225;59.282;18.344;2023-04-24T01:29:57;8.70;99.90
14283;DHT22;7225;59.282;18.344;2023-04-24T01:32:25;8.60;99.90
14283;DHT22;7225;59.282;18.344;2023-04-24T01:34:52;8.60;99.90
14283;DHT22;7225;59.282;18.344;2023-04-24T01:37:20;8.60;99.90
14283;DHT22;7225;59.282;18.344;2023-04-24T01:39:47;8.60;99.90
14283;DHT22;7225;59.282;18.344;2023-04-24T01:42:14;8.60;99.90
14283;DHT22;7225;59.282;18.344;2023-04-24T01:44:41;8.60;99.90
14283;DHT22;7225;59.282;18.344;2023-04-24T01:47:09;8.60;99.90
14283;DHT22;7225;59.282;18.344;2023-04-24T01:49:40;8.70;99.90
14283;DHT22;7225;59.282;18.344;2023-04-24T01:52:07;8.70;99.90
14283;DHT22;7225;59.282;18.344;2023-04-24T01:54:34;8.70;99.90
14283;DHT22;7225;59.282;18.344;2023-04-24T01:57:01;8.60;99.90
14283;DHT22;7225;59.282;18.344;2023-04-24T01:59:30;8.60;99.90
14283;DHT22;7225;59.282;18.344;2023-04-24T02:01:57;8.60;99.90
14283;DHT22;7225;59.282;18.344;2023-04-24T02:04:24;8.60;99.90
14283;DHT22;7225;59.282;18.344;2023-04-24T02:06:51;8.60;99.90
14283;DHT22;7225;59.282;18.344;2023-04-24T02:09:19;8.60;99.90
14283;DHT22;7225;59.282;18.344;2023-04-24T02:11:46;8.50;99.90
14283;DHT22;7225;59.282;18.344;2023-04-24T02:14:13;8.60;99.90
14283;DHT22;7225;59.282;18.344;2023-04-24T02:16:39;8.60;99.90
14283;DHT22;7225;59.282;18.344;2023-04-24T02:19:06;8.60;99.90
14283;DHT22;7225;59.282;18.344;2023-04-24T02:21:34;8.60;99.90
14283;DHT22;7225;59.282;18.344;2023-04-24T02:24:01;8.50;99.90
14283;DHT22;7225;59.282;18.344;2023-04-24T02:26:28;8.50;99.90
14283;DHT22;7225;59.282;18.344;2023-04-24T02:28:55;8.50;99.90
14283;DHT22;7225;59.282;18.344;2023-04-24T02:31:22;8.50;99.90
14283;DHT22;7225;59.282;18.344;2023-04-24T02:33:49;8.50;99.90
14283;DHT22;7225;59.282;18.344;2023-04-24T02:36:16;8.40;99.90
14283;DHT22;7225;59.282;18.344;2023-04-24T02:38:43;8.40;99.90
14283;DHT22;7225;59.282;18.344;2023-04-24T02:41:10;8.40;99.90
14283;DHT22;7225;59.282;18.344;2023-04-24T02:43:37;8.30;99.90
14283;DHT22;7225;59.282;18.344;2023-04-24T02:46:04;8.30;99.90
14283;DHT22;7225;59.282;18.344;2023-04-24T02:48:31;8.30;99.90
14283;DHT22;7225;59.282;18.344;2023-04-24T02:50:58;8.30;99.90
14283;DHT22;7225;59.282;18.344;2023-04-24T02:53:25;8.30;99.90
14283;DHT22;7225;59.282;18.344;2023-04-24T02:55:52;8.20;99.90
14283;DHT22;7225;59.282;18.344;2023-04-24T02:58:19;8.20;99.90
14283;DHT22;7225;59.282;18.344;2023-04-24T03:00:46;8.10;99.90
14283;DHT22;7225;59.282;18.344;2023-04-24T03:03:14;8.10;99.90
14283;DHT22;7225;59.282;18.344;2023-04-24T03:05:42;8.00;99.90
14283;DHT22;7225;59.282;18.344;2023-04-24T03:08:09;8.00;99.90
14283;DHT22;7225;59.282;18.344;2023-04-24T03:10:37;8.00;99.90
14283;DHT22;7225;59.282;18.344;2023-04-24T03:13:04;7.90;99.90
14283;DHT22;7225;59.282;18.344;2023-04-24T03:15:31;8.00;99.90
14283;DHT22;7225;59.282;18.344;2023-04-24T03:17:58;8.00;99.90
14283;DHT22;7225;59.282;18.344;2023-04-24T03:20:25;8.00;99.90
14283;DHT22;7225;59.282;18.344;2023-04-24T03:22:52;7.90;99.90
14283;DHT22;7225;59.282;18.344;2023-04-24T03:25:19;7.90;99.90
14283;DHT22;7225;59.282;18.344;2023-04-24T03:27:46;7.90;99.90
14283;DHT22;7225;59.282;18.344;2023-04-24T03:30:13;7.90;99.90
14283;DHT22;7225;59.282;18.344;2023-04-24T03:32:41;7.80;99.90
14283;DHT22;7225;59.282;18.344;2023-04-24T03:35:09;7.80;99.90
14283;DHT22;7225;59.282;18.344;2023-04-24T03:37:36;7.80;99.90
14283;DHT22;7225;59.282;18.344;2023-04-24T03:40:03;7.80;99.90
14283;DHT22;7225;59.282;18.344;2023-04-24T03:42:30;7.80;99.90
14283;DHT22;7225;59.282;18.344;2023-04-24T03:44:57;7.70;99.90
14283;DHT22;7225;59.282;18.344;2023-04-24T03:47:24;7.80;99.90
14283;DHT22;7225;59.282;18.344;2023-04-24T03:49:51;7.70;99.90
14283;DHT22;7225;59.282;18.344;2023-04-24T03:52:18;7.70;99.90
14283;DHT22;7225;59.282;18.344;2023-04-24T03:54:45;7.70;99.90
14283;DHT22;7225;59.282;18.344;2023-04-24T03:57:12;7.70;99.90
14283;DHT22;7225;59.282;18.344;2023-04-24T03:59:39;7.70;99.90
14283;DHT22;7225;59.282;18.344;2023-04-24T04:02:06;7.80;99.90
14283;DHT22;7225;59.282;18.344;2023-04-24T04:04:35;7.70;99.90
14283;DHT22;7225;59.282;18.344;2023-04-24T04:07:02;7.70;99.90
14283;DHT22;7225;59.282;18.344;2023-04-24T04:09:29;7.70;99.90
14283;DHT22;7225;59.282;18.344;2023-04-24T04:11:56;7.70;99.90
14283;DHT22;7225;59.282;18.344;2023-04-24T04:14:23;7.70;99.90
14283;DHT22;7225;59.282;18.344;2023-04-24T04:16:51;7.70;99.90
14283;DHT22;7225;59.282;18.344;2023-04-24T04:19:20;7.70;99.90
14283;DHT22;7225;59.282;18.344;2023-04-24T04:21:48;7.70;99.90
14283;DHT22;7225;59.282;18.344;2023-04-24T04:24:19;7.70;99.90
14283;DHT22;7225;59.282;18.344;2023-04-24T04:26:51;7.70;99.90
14283;DHT22;7225;59.282;18.344;2023-04-24T04:29:18;7.70;99.90
14283;DHT22;7225;59.282;18.344;2023-04-24T04:31:45;7.70;99.90
14283;DHT22;7225;59.282;18.344;2023-04-24T04:34:13;7.70;99.90
14283;DHT22;7225;59.282;18.344;2023-04-24T04:36:41;7.60;99.90
14283;DHT22;7225;59.282;18.344;2023-04-24T04:39:09;7.60;99.90
14283;DHT22;7225;59.282;18.344;2023-04-24T04:41:36;7.60;99.90
14283;DHT22;7225;59.282;18.344;2023-04-24T04:44:04;7.60;99.90
14283;DHT22;7225;59.282;18.344;2023-04-24T04:46:31;7.60;99.90
14283;DHT22;7225;59.282;18.344;2023-04-24T04:49:03;7.60;99.90
14283;DHT22;7225;59.282;18.344;2023-04-24T04:51:30;7.60;99.90
14283;DHT22;7225;59.282;18.344;2023-04-24T04:53:57;7.60;99.90
14283;DHT22;7225;59.282;18.344;2023-04-24T04:56:24;7.60;99.90
14283;DHT22;7225;59.282;18.344;2023-04-24T04:58:52;7.60;99.90
14283;DHT22;7225;59.282;18.344;2023-04-24T05:01:19;7.60;99.90
14283;DHT22;7225;59.282;18.344;2023-04-24T05:03:46;7.70;99.90
14283;DHT22;7225;59.282;18.344;2023-04-24T05:06:14;7.60;99.90
14283;DHT22;7225;59.282;18.344;2023-04-24T05:08:41;7.60;99.90
14283;DHT22;7225;59.282;18.344;2023-04-24T05:11:08;7.60;99.90
14283;DHT22;7225;59.282;18.344;2023-04-24T05:13:35;7.60;99.90
14283;DHT22;7225;59.282;18.344;2023-04-24T05:16:07;7.60;99.90
14283;DHT22;7225;59.282;18.344;2023-04-24T05:18:34;7.60;99.90
14283;DHT22;7225;59.282;18.344;2023-04-24T05:21:01;7.60;99.90
14283;DHT22;7225;59.282;18.344;2023-04-24T05:23:28;7.60;99.90
14283;DHT22;7225;59.282;18.344;2023-04-24T05:25:55;7.60;99.90
14283;DHT22;7225;59.282;18.344;2023-04-24T05:28:22;7.50;99.90
14283;DHT22;7225;59.282;18.344;2023-04-24T05:30:49;7.60;99.90
14283;DHT22;7225;59.282;18.344;2023-04-24T05:33:16;7.60;99.90
14283;DHT22;7225;59.282;18.344;2023-04-24T05:35:43;7.60;99.90
14283;DHT22;7225;59.282;18.344;2023-04-24T05:38:14;7.50;99.90
14283;DHT22;7225;59.282;18.344;2023-04-24T05:40:44;7.50;99.90
14283;DHT22;7225;59.282;18.344;2023-04-24T05:43:12;7.50;99.90
14283;DHT22;7225;59.282;18.344;2023-04-24T05:45:39;7.50;99.90
14283;DHT22;7225;59.282;18.344;2023-04-24T05:48:06;7.60;99.90
14283;DHT22;7225;59.282;18.344;2023-04-24T05:50:33;7.60;99.90
14283;DHT22;7225;59.282;18.344;2023-04-24T05:53:03;7.50;99.90
14283;DHT22;7225;59.282;18.344;2023-04-24T05:55:31;7.50;99.90
14283;DHT22;7225;59.282;18.344;2023-04-24T05:57:58;7.50;99.90
14283;DHT22;7225;59.282;18.344;2023-04-24T06:00:25;7.50;99.90
14283;DHT22;7225;59.282;18.344;2023-04-24T06:02:53;7.40;99.90
14283;DHT22;7225;59.282;18.344;2023-04-24T06:05:21;7.40;99.90
14283;DHT22;7225;59.282;18.344;2023-04-24T06:07:48;7.40;99.90
14283;DHT22;7225;59.282;18.344;2023-04-24T06:10:15;7.40;99.90
14283;DHT22;7225;59.282;18.344;2023-04-24T06:12:43;7.40;99.90
14283;DHT22;7225;59.282;18.344;2023-04-24T06:15:10;7.40;99.90
14283;DHT22;7225;59.282;18.344;2023-04-24T06:17:37;7.50;99.90
14283;DHT22;7225;59.282;18.344;2023-04-24T06:20:05;7.50;99.90
14283;DHT22;7225;59.282;18.344;2023-04-24T06:22:33;7.50;99.90
14283;DHT22;7225;59.282;18.344;2023-04-24T06:25:00;7.50;99.90
14283;DHT22;7225;59.282;18.344;2023-04-24T06:27:28;7.50;99.90
14283;DHT22;7225;59.282;18.344;2023-04-24T06:29:55;7.50;99.90
14283;DHT22;7225;59.282;18.344;2023-04-24T06:32:25;7.60;99.90
14283;DHT22;7225;59.282;18.344;2023-04-24T06:34:52;7.50;99.90
14283;DHT22;7225;59.282;18.344;2023-04-24T06:37:22;7.60;99.90
14283;DHT22;7225;59.282;18.344;2023-04-24T06:39:50;7.60;99.90
14283;DHT22;7225;59.282;18.344;2023-04-24T06:42:17;7.60;99.90
14283;DHT22;7225;59.282;18.344;2023-04-24T06:44:43;7.60;99.90
14283;DHT22;7225;59.282;18.344;2023-04-24T06:47:11;7.60;99.90
14283;DHT22;7225;59.282;18.344;2023-04-24T06:49:42;7.60;99.90
14283;DHT22;7225;59.282;18.344;2023-04-24T06:52:09;7.60;99.90
14283;DHT22;7225;59.282;18.344;2023-04-24T06:54:36;7.50;99.90
14283;DHT22;7225;59.282;18.344;2023-04-24T06:57:03;7.50;99.90
14283;DHT22;7225;59.282;18.344;2023-04-24T06:59:30;7.60;99.90
14283;DHT22;7225;59.282;18.344;2023-04-24T07:01:57;7.50;99.90
14283;DHT22;7225;59.282;18.344;2023-04-24T07:04:24;7.50;99.90
14283;DHT22;7225;59.282;18.344;2023-04-24T07:06:52;7.60;99.90
14283;DHT22;7225;59.282;18.344;2023-04-24T07:09:23;7.60;99.90
14283;DHT22;7225;59.282;18.344;2023-04-24T07:11:53;7.60;99.90
14283;DHT22;7225;59.282;18.344;2023-04-24T07:14:20;7.50;99.90
14283;DHT22;7225;59.282;18.344;2023-04-24T07:16:48;7.50;99.90
14283;DHT22;7225;59.282;18.344;2023-04-24T07:19:15;7.50;99.90
14283;DHT22;7225;59.282;18.344;2023-04-24T07:21:42;7.60;99.90
14283;DHT22;7225;59.282;18.344;2023-04-24T07:24:09;7.60;99.90
14283;DHT22;7225;59.282;18.344;2023-04-24T07:26:38;7.50;99.90
14283;DHT22;7225;59.282;18.344;2023-04-24T07:29:07;7.60;99.90
14283;DHT22;7225;59.282;18.344;2023-04-24T07:31:34;7.60;99.90
14283;DHT22;7225;59.282;18.344;2023-04-24T07:34:01;7.50;99.90
14283;DHT22;7225;59.282;18.344;2023-04-24T07:36:28;7.50;99.90
14283;DHT22;7225;59.282;18.344;2023-04-24T07:38:55;7.50;99.90
14283;DHT22;7225;59.282;18.344;2023-04-24T07:41:24;7.50;99.90
14283;DHT22;7225;59.282;18.344;2023-04-24T07:43:51;7.50;99.90
14283;DHT22;7225;59.282;18.344;2023-04-24T07:46:20;7.50;99.90
14283;DHT22;7225;59.282;18.344;2023-04-24T07:48:47;7.50;99.90
14283;DHT22;7225;59.282;18.344;2023-04-24T07:51:27;7.50;99.90
14283;DHT22;7225;59.282;18.344;2023-04-24T07:53:54;7.50;99.90
14283;DHT22;7225;59.282;18.344;2023-04-24T07:56:21;7.60;99.90
14283;DHT22;7225;59.282;18.344;2023-04-24T07:58:48;7.60;99.90
14283;DHT22;7225;59.282;18.344;2023-04-24T08:01:15;7.50;99.90
14283;DHT22;7225;59.282;18.344;2023-04-24T08:03:42;7.50;99.90
14283;DHT22;7225;59.282;18.344;2023-04-24T08:06:10;7.50;99.90
14283;DHT22;7225;59.282;18.344;2023-04-24T08:08:37;7.60;99.90
14283;DHT22;7225;59.282;18.344;2023-04-24T08:11:04;7.60;99.90
14283;DHT22;7225;59.282;18.344;2023-04-24T08:13:31;7.70;99.90
14283;DHT22;7225;59.282;18.344;2023-04-24T08:15:58;7.70;99.90
14283;DHT22;7225;59.282;18.344;2023-04-24T08:18:25;7.70;99.90
14283;DHT22;7225;59.282;18.344;2023-04-24T08:20:53;7.70;99.90
14283;DHT22;7225;59.282;18.344;2023-04-24T08:23:20;7.80;99.90
14283;DHT22;7225;59.282;18.344;2023-04-24T08:25:47;7.70;99.90
14283;DHT22;7225;59.282;18.344;2023-04-24T08:28:13;7.80;99.90
14283;DHT22;7225;59.282;18.344;2023-04-24T08:30:47;7.80;99.90
14283;DHT22;7225;59.282;18.344;2023-04-24T08:33:14;7.70;99.90
14283;DHT22;7225;59.282;18.344;2023-04-24T08:35:41;7.80;99.90
14283;DHT22;7225;59.282;18.344;2023-04-24T08:38:08;7.80;99.90
14283;DHT22;7225;59.282;18.344;2023-04-24T08:40:37;7.80;99.90
14283;DHT22;7225;59.282;18.344;2023-04-24T08:43:04;7.80;99.90
14283;DHT22;7225;59.282;18.344;2023-04-24T08:45:32;7.80;99.90
14283;DHT22;7225;59.282;18.344;2023-04-24T08:48:00;7.80;99.90
14283;DHT22;7225;59.282;18.344;2023-04-24T08:50:28;7.80;99.90
14283;DHT22;7225;59.282;18.344;2023-04-24T08:52:56;7.70;99.90
14283;DHT22;7225;59.282;18.344;2023-04-24T08:55:24;7.80;99.90
14283;DHT22;7225;59.282;18.344;2023-04-24T08:57:52;7.80;99.90
14283;DHT22;7225;59.282;18.344;2023-04-24T09:00:22;7.80;99.90
14283;DHT22;7225;59.282;18.344;2023-04-24T09:02:50;7.80;99.90
14283;DHT22;7225;59.282;18.344;2023-04-24T09:05:18;7.80;99.90
14283;DHT22;7225;59.282;18.344;2023-04-24T09:07:55;7.90;99.90
14283;DHT22;7225;59.282;18.344;2023-04-24T09:10:23;7.80;99.90
14283;DHT22;7225;59.282;18.344;2023-04-24T09:12:51;7.70;99.90
14283;DHT22;7225;59.282;18.344;2023-04-24T09:15:19;7.70;99.90
14283;DHT22;7225;59.282;18.344;2023-04-24T09:17:47;7.80;99.90
14283;DHT22;7225;59.282;18.344;2023-04-24T09:20:14;7.80;99.90
14283;DHT22;7225;59.282;18.344;2023-04-24T09:22:45;7.70;99.90
14283;DHT22;7225;59.282;18.344;2023-04-24T09:25:12;7.80;99.90
14283;DHT22;7225;59.282;18.344;2023-04-24T09:27:43;7.80;99.90
14283;DHT22;7225;59.282;18.344;2023-04-24T09:30:11;7.80;99.90
14283;DHT22;7225;59.282;18.344;2023-04-24T09:32:39;7.80;99.90
14283;DHT22;7225;59.282;18.344;2023-04-24T09:35:14;7.70;99.90
14283;DHT22;7225;59.282;18.344;2023-04-24T09:37:44;7.70;99.90
14283;DHT22;7225;59.282;18.344;2023-04-24T09:40:21;7.80;99.90
14283;DHT22;7225;59.282;18.344;2023-04-24T09:42:54;7.70;99.90
14283;DHT22;7225;59.282;18.344;2023-04-24T09:45:44;7.60;99.90
14283;DHT22;7225;59.282;18.344;2023-04-24T09:48:10;7.60;99.90
14283;DHT22;7225;59.282;18.344;2023-04-24T09:50:37;7.70;99.90
14283;DHT22;7225;59.282;18.344;2023-04-24T09:53:05;7.70;99.90
14283;DHT22;7225;59.282;18.344;2023-04-24T09:55:39;7.70;99.90
14283;DHT22;7225;59.282;18.344;2023-04-24T09:58:08;7.80;99.90
14283;DHT22;7225;59.282;18.344;2023-04-24T10:00:35;7.80;99.90
14283;DHT22;7225;59.282;18.344;2023-04-24T10:03:03;7.70;99.90
14283;DHT22;7225;59.282;18.344;2023-04-24T10:05:35;7.80;99.90
14283;DHT22;7225;59.282;18.344;2023-04-24T10:08:03;7.80;99.90
14283;DHT22;7225;59.282;18.344;2023-04-24T10:10:31;7.80;99.90
14283;DHT22;7225;59.282;18.344;2023-04-24T10:12:59;7.80;99.90
14283;DHT22;7225;59.282;18.344;2023-04-24T10:15:27;7.80;99.90
14283;DHT22;7225;59.282;18.344;2023-04-24T10:17:54;7.80;99.90
14283;DHT22;7225;59.282;18.344;2023-04-24T10:20:26;7.90;99.90
14283;DHT22;7225;59.282;18.344;2023-04-24T10:22:53;7.80;99.90
14283;DHT22;7225;59.282;18.344;2023-04-24T10:25:22;7.80;99.90
14283;DHT22;7225;59.282;18.344;2023-04-24T10:27:51;7.80;99.90
14283;DHT22;7225;59.282;18.344;2023-04-24T10:30:19;7.80;99.90
14283;DHT22;7225;59.282;18.344;2023-04-24T10:32:46;7.80;99.90
14283;DHT22;7225;59.282;18.344;2023-04-24T10:35:14;7.90;99.90
14283;DHT22;7225;59.282;18.344;2023-04-24T10:37:45;7.90;99.90
14283;DHT22;7225;59.282;18.344;2023-04-24T10:40:18;7.90;99.90
14283;DHT22;7225;59.282;18.344;2023-04-24T10:42:49;7.90;99.90
14283;DHT22;7225;59.282;18.344;2023-04-24T10:45:22;7.80;99.90
14283;DHT22;7225;59.282;18.344;2023-04-24T10:50:27;7.90;99.90
14283;DHT22;7225;59.282;18.344;2023-04-24T10:53:06;7.90;99.90
14283;DHT22;7225;59.282;18.344;2023-04-24T10:56:22;7.90;99.90
14283;DHT22;7225;59.282;18.344;2023-04-24T11:01:07;7.90;99.90
14283;DHT22;7225;59.282;18.344;2023-04-24T11:03:35;7.90;99.90
14283;DHT22;7225;59.282;18.344;2023-04-24T11:06:08;8.00;99.90
14283;DHT22;7225;59.282;18.344;2023-04-24T11:08:42;7.90;99.90
14283;DHT22;7225;59.282;18.344;2023-04-24T11:11:17;8.00;99.90
14283;DHT22;7225;59.282;18.344;2023-04-24T11:16:23;7.80;99.90
14283;DHT22;7225;59.282;18.344;2023-04-24T11:24:31;7.70;99.90
14283;DHT22;7225;59.282;18.344;2023-04-24T11:27:20;7.70;99.90
14283;DHT22;7225;59.282;18.344;2023-04-24T11:35:22;7.90;99.90
14283;DHT22;7225;59.282;18.344;2023-04-24T11:37:50;7.90;99.90
14283;DHT22;7225;59.282;18.344;2023-04-24T11:40:21;7.90;99.90
14283;DHT22;7225;59.282;18.344;2023-04-24T11:42:53;7.80;99.90
14283;DHT22;7225;59.282;18.344;2023-04-24T11:47:50;7.80;99.90
14283;DHT22;7225;59.282;18.344;2023-04-24T11:50:19;7.90;99.90
14283;DHT22;7225;59.282;18.344;2023-04-24T11:52:47;7.90;99.90
14283;DHT22;7225;59.282;18.344;2023-04-24T11:57:46;7.90;99.90
14283;DHT22;7225;59.282;18.344;2023-04-24T12:00:17;7.90;99.90
14283;DHT22;7225;59.282;18.344;2023-04-24T12:02:45;7.90;99.90
14283;DHT22;7225;59.282;18.344;2023-04-24T12:05:24;7.90;99.90
14283;DHT22;7225;59.282;18.344;2023-04-24T12:07:53;7.90;99.90
14283;DHT22;7225;59.282;18.344;2023-04-24T12:10:25;7.90;99.90
14283;DHT22;7225;59.282;18.344;2023-04-24T12:12:53;7.70;99.90
14283;DHT22;7225;59.282;18.344;2023-04-24T12:15:22;7.80;99.90
14283;DHT22;7225;59.282;18.344;2023-04-24T12:17:52;7.80;99.90
14283;DHT22;7225;59.282;18.344;2023-04-24T12:20:30;7.80;99.90
14283;DHT22;7225;59.282;18.344;2023-04-24T12:22:59;7.70;99.90
14283;DHT22;7225;59.282;18.344;2023-04-24T12:25:28;7.70;99.90
14283;DHT22;7225;59.282;18.344;2023-04-24T12:28:11;7.70;99.90
14283;DHT22;7225;59.282;18.344;2023-04-24T12:30:44;7.70;99.90
14283;DHT22;7225;59.282;18.344;2023-04-24T12:33:19;7.70;99.90
14283;DHT22;7225;59.282;18.344;2023-04-24T12:35:48;7.70;99.90
14283;DHT22;7225;59.282;18.344;2023-04-24T12:38:16;7.60;99.90
14283;DHT22;7225;59.282;18.344;2023-04-24T12:40:44;7.70;99.90
14283;DHT22;7225;59.282;18.344;2023-04-24T12:43:18;7.60;99.90
14283;DHT22;7225;59.282;18.344;2023-04-24T12:45:47;7.60;99.90
14283;DHT22;7225;59.282;18.344;2023-04-24T12:48:14;7.50;99.90
14283;DHT22;7225;59.282;18.344;2023-04-24T12:50:42;7.50;99.90
14283;DHT22;7225;59.282;18.344;2023-04-24T12:53:13;7.50;99.90
14283;DHT22;7225;59.282;18.344;2023-04-24T12:55:40;7.40;99.90
14283;DHT22;7225;59.282;18.344;2023-04-24T12:58:08;7.40;99.90
14283;DHT22;7225;59.282;18.344;2023-04-24T13:00:35;7.50;99.90
14283;DHT22;7225;59.282;18.344;2023-04-24T13:03:02;7.50;99.90
14283;DHT22;7225;59.282;18.344;2023-04-24T13:05:30;7.40;99.90
14283;DHT22;7225;59.282;18.344;2023-04-24T13:07:57;7.40;99.90
14283;DHT22;7225;59.282;18.344;2023-04-24T13:10:24;7.40;99.90
14283;DHT22;7225;59.282;18.344;2023-04-24T13:12:51;7.30;99.90
14283;DHT22;7225;59.282;18.344;2023-04-24T13:15:19;7.30;99.90
14283;DHT22;7225;59.282;18.344;2023-04-24T13:17:46;7.20;99.90
14283;DHT22;7225;59.282;18.344;2023-04-24T13:20:13;7.30;99.90
14283;DHT22;7225;59.282;18.344;2023-04-24T13:22:40;7.20;99.90
14283;DHT22;7225;59.282;18.344;2023-04-24T13:25:07;7.20;99.90
14283;DHT22;7225;59.282;18.344;2023-04-24T13:27:34;7.20;99.90
14283;DHT22;7225;59.282;18.344;2023-04-24T13:30:01;7.10;99.90
14283;DHT22;7225;59.282;18.344;2023-04-24T13:32:28;7.10;99.90
14283;DHT22;7225;59.282;18.344;2023-04-24T13:34:56;7.10;99.90
14283;DHT22;7225;59.282;18.344;2023-04-24T13:37:23;7.10;99.90
14283;DHT22;7225;59.282;18.344;2023-04-24T13:39:50;7.10;99.90
14283;DHT22;7225;59.282;18.344;2023-04-24T13:42:18;7.10;99.90
14283;DHT22;7225;59.282;18.344;2023-04-24T13:44:46;7.10;99.90
14283;DHT22;7225;59.282;18.344;2023-04-24T13:47:13;7.10;99.90
14283;DHT22;7225;59.282;18.344;2023-04-24T13:49:40;7.00;99.90
14283;DHT22;7225;59.282;18.344;2023-04-24T13:52:07;7.00;99.90
14283;DHT22;7225;59.282;18.344;2023-04-24T13:54:34;7.00;99.90
14283;DHT22;7225;59.282;18.344;2023-04-24T13:57:03;7.00;99.90
14283;DHT22;7225;59.282;18.344;2023-04-24T13:59:30;7.10;99.90
14283;DHT22;7225;59.282;18.344;2023-04-24T14:01:57;7.00;99.90
14283;DHT22;7225;59.282;18.344;2023-04-24T14:04:24;7.10;99.90
14283;DHT22;7225;59.282;18.344;2023-04-24T14:06:51;7.10;99.90
14283;DHT22;7225;59.282;18.344;2023-04-24T14:09:18;7.10;99.90
14283;DHT22;7225;59.282;18.344;2023-04-24T14:11:45;7.00;99.90
14283;DHT22;7225;59.282;18.344;2023-04-24T14:14:12;7.00;99.90
14283;DHT22;7225;59.282;18.344;2023-04-24T14:16:39;7.10;99.90
14283;DHT22;7225;59.282;18.344;2023-04-24T14:19:06;7.10;99.90
14283;DHT22;7225;59.282;18.344;2023-04-24T14:21:34;7.10;99.90
14283;DHT22;7225;59.282;18.344;2023-04-24T14:24:01;7.20;99.90
14283;DHT22;7225;59.282;18.344;2023-04-24T14:26:28;7.20;99.90
14283;DHT22;7225;59.282;18.344;2023-04-24T14:28:55;7.10;99.90
14283;DHT22;7225;59.282;18.344;2023-04-24T14:31:37;7.10;99.90
14283;DHT22;7225;59.282;18.344;2023-04-24T14:34:04;7.10;99.90
14283;DHT22;7225;59.282;18.344;2023-04-24T14:36:31;7.00;99.90
14283;DHT22;7225;59.282;18.344;2023-04-24T14:38:58;7.10;99.90
14283;DHT22;7225;59.282;18.344;2023-04-24T14:41:25;7.10;99.90
14283;DHT22;7225;59.282;18.344;2023-04-24T14:43:52;7.20;99.90
14283;DHT22;7225;59.282;18.344;2023-04-24T14:46:19;7.20;99.90
14283;DHT22;7225;59.282;18.344;2023-04-24T14:48:47;7.20;99.90
14283;DHT22;7225;59.282;18.344;2023-04-24T14:51:14;7.10;99.90
14283;DHT22;7225;59.282;18.344;2023-04-24T14:53:40;7.10;99.90
14283;DHT22;7225;59.282;18.344;2023-04-24T14:56:08;7.10;99.90
14283;DHT22;7225;59.282;18.344;2023-04-24T14:58:35;7.10;99.90
14283;DHT22;7225;59.282;18.344;2023-04-24T15:01:02;7.10;99.90
14283;DHT22;7225;59.282;18.344;2023-04-24T15:03:29;7.10;99.90
14283;DHT22;7225;59.282;18.344;2023-04-24T15:05:56;7.10;99.90
14283;DHT22;7225;59.282;18.344;2023-04-24T15:08:24;7.20;99.90
14283;DHT22;7225;59.282;18.344;2023-04-24T15:10:51;7.20;99.90
14283;DHT22;7225;59.282;18.344;2023-04-24T15:13:18;7.20;99.90
14283;DHT22;7225;59.282;18.344;2023-04-24T15:15:48;7.20;99.90
14283;DHT22;7225;59.282;18.344;2023-04-24T15:18:15;7.10;99.90
14283;DHT22;7225;59.282;18.344;2023-04-24T15:20:42;7.20;99.90
14283;DHT22;7225;59.282;18.344;2023-04-24T15:23:10;7.10;99.90
14283;DHT22;7225;59.282;18.344;2023-04-24T15:25:38;7.10;99.90
14283;DHT22;7225;59.282;18.344;2023-04-24T15:28:05;7.10;99.90
14283;DHT22;7225;59.282;18.344;2023-04-24T15:30:32;7.00;99.90
14283;DHT22;7225;59.282;18.344;2023-04-24T15:33:00;6.90;99.90
14283;DHT22;7225;59.282;18.344;2023-04-24T15:35:28;7.00;99.90
14283;DHT22;7225;59.282;18.344;2023-04-24T15:37:55;6.90;99.90
14283;DHT22;7225;59.282;18.344;2023-04-24T15:40:22;7.00;99.90
14283;DHT22;7225;59.282;18.344;2023-04-24T15:42:49;6.90;99.90
14283;DHT22;7225;59.282;18.344;2023-04-24T15:45:16;6.90;99.90
14283;DHT22;7225;59.282;18.344;2023-04-24T15:47:44;6.90;99.90
14283;DHT22;7225;59.282;18.344;2023-04-24T15:50:13;6.90;99.90
14283;DHT22;7225;59.282;18.344;2023-04-24T15:52:43;6.90;99.90
14283;DHT22;7225;59.282;18.344;2023-04-24T15:55:10;6.90;99.90
14283;DHT22;7225;59.282;18.344;2023-04-24T15:57:37;6.90;99.90
14283;DHT22;7225;59.282;18.344;2023-04-24T16:00:05;6.90;99.90
14283;DHT22;7225;59.282;18.344;2023-04-24T16:02:33;6.90;99.90
14283;DHT22;7225;59.282;18.344;2023-04-24T16:05:00;6.80;99.90
14283;DHT22;7225;59.282;18.344;2023-04-24T16:07:27;6.80;99.90
14283;DHT22;7225;59.282;18.344;2023-04-24T16:09:54;6.80;99.90
14283;DHT22;7225;59.282;18.344;2023-04-24T16:12:21;6.60;99.90
14283;DHT22;7225;59.282;18.344;2023-04-24T16:14:48;6.60;99.90